createdAt,value
2022-11-17T00:01:23.142Z,97050.91
2022-11-17T00:03:27.352Z,97046.56
2022-11-17T00:05:28.845Z,97041.09
2022-11-17T00:07:30.989Z,97049.78
2022-11-17T00:09:34.437Z,97037.28
2022-11-17T00:11:57.409Z,97031.00
2022-11-17T00:14:17.764Z,97030.19
2022-11-17T00:16:22.541Z,97026.13
2022-11-17T00:18:43.101Z,97028.84
2022-11-17T00:21:03.103Z,97029.16
2022-11-17T00:23:06.466Z,97028.63
2022-11-17T00:25:08.127Z,97022.06
2022-11-17T00:27:13.087Z,97011.47
2022-11-17T00:29:14.657Z,97014.97
2022-11-17T00:31:37.495Z,97022.38
2022-11-17T00:34:00.667Z,97019.09
2022-11-17T00:36:02.315Z,97011.53
2022-11-17T00:38:16.118Z,97005.78
2022-11-17T00:40:20.541Z,97012.31
2022-11-17T00:42:22.187Z,97017.00
2022-11-17T00:44:27.118Z,97006.88
2022-11-17T00:46:31.016Z,97017.50
2022-11-17T00:48:32.731Z,97014.47
2022-11-17T00:50:38.597Z,97016.38
2022-11-17T00:52:40.212Z,97015.28
2022-11-17T00:54:44.535Z,97017.19
2022-11-17T00:56:46.800Z,97010.66
2022-11-17T00:58:49.605Z,97009.84
2022-11-17T01:00:51.357Z,97011.75
2022-11-17T01:02:52.850Z,97008.75
2022-11-17T01:04:54.795Z,97005.72
2022-11-17T01:07:01.407Z,97013.06
2022-11-17T01:09:06.342Z,97009.53
2022-11-17T01:11:16.612Z,97004.63
2022-11-17T01:13:18.220Z,97007.84
2022-11-17T01:15:19.880Z,97003.22
2022-11-17T01:17:21.351Z,96993.09
2022-11-17T01:19:33.366Z,96992.00
2022-11-17T01:21:35.116Z,96996.63
2022-11-17T01:23:38.629Z,96992.81
2022-11-17T01:25:45.315Z,96990.09
2022-11-17T01:27:48.018Z,96982.72
2022-11-17T01:29:49.604Z,96983.81
2022-11-17T01:31:52.553Z,96974.53
2022-11-17T01:33:54.912Z,96973.41
2022-11-17T01:36:01.004Z,96969.09
2022-11-17T01:38:04.057Z,96963.31
2022-11-17T01:40:06.827Z,96964.97
2022-11-17T01:42:18.701Z,96960.59
2022-11-17T01:44:53.832Z,96958.44
2022-11-17T01:47:00.640Z,96955.72
2022-11-17T01:49:19.723Z,96950.59
2022-11-17T01:51:22.883Z,96963.09
2022-11-17T01:53:26.131Z,96964.72
2022-11-17T01:55:37.850Z,96960.91
2022-11-17T01:57:47.540Z,96958.19
2022-11-17T01:59:56.301Z,96951.91
2022-11-17T02:01:58.557Z,96955.44
2022-11-17T02:04:03.144Z,96945.31
2022-11-17T02:06:12.904Z,96926.78
2022-11-17T02:08:19.566Z,96937.69
2022-11-17T02:10:21.325Z,96919.69
2022-11-17T02:12:26.437Z,96915.56
2022-11-17T02:14:30.547Z,96899.19
2022-11-17T02:16:32.289Z,96892.63
2022-11-17T02:18:35.836Z,96900.50
2022-11-17T02:20:44.814Z,96910.59
2022-11-17T02:22:56.069Z,96912.81
2022-11-17T02:25:24.280Z,96912.81
2022-11-17T02:28:12.782Z,96907.38
2022-11-17T02:30:18.402Z,96907.88
2022-11-17T02:32:35.413Z,96914.97
2022-11-17T02:34:54.606Z,96914.66
2022-11-17T02:37:09.867Z,96908.38
2022-11-17T02:39:31.467Z,96897.47
2022-11-17T02:41:52.413Z,96901.53
2022-11-17T02:44:25.168Z,96898.00
2022-11-17T02:46:32.082Z,96895.78
2022-11-17T02:48:38.787Z,96893.06
2022-11-17T02:50:45.759Z,96887.88
2022-11-17T02:52:47.510Z,96875.06
2022-11-17T02:54:51.519Z,96875.28
2022-11-17T02:56:53.317Z,96879.34
2022-11-17T02:59:03.016Z,96871.97
2022-11-17T03:01:22.635Z,96864.56
2022-11-17T03:03:51.928Z,96858.31
2022-11-17T03:06:07.357Z,96852.56
2022-11-17T03:08:54.892Z,96847.09
2022-11-17T03:11:00.238Z,96832.38
2022-11-17T03:13:24.548Z,96825.78
2022-11-17T03:15:36.373Z,96819.50
2022-11-17T03:18:10.132Z,96814.06
2022-11-17T03:20:43.424Z,96815.69
2022-11-17T03:23:02.216Z,96811.03
2022-11-17T03:25:08.810Z,96817.00
2022-11-17T03:27:19.776Z,96822.47
2022-11-17T03:29:24.896Z,96813.47
2022-11-17T03:31:29.764Z,96817.81
2022-11-17T03:33:32.442Z,96808.50
2022-11-17T03:35:38.716Z,96817.50
2022-11-17T03:37:47.441Z,96821.88
2022-11-17T03:39:55.371Z,96816.09
2022-11-17T03:42:21.004Z,96826.41
2022-11-17T03:44:26.347Z,96824.19
2022-11-17T03:46:30.555Z,96819.31
2022-11-17T03:48:42.876Z,96818.16
2022-11-17T03:50:55.497Z,96813.84
2022-11-17T03:52:57.549Z,96806.72
2022-11-17T03:55:02.334Z,96801.81
2022-11-17T03:57:23.628Z,96798.25
2022-11-17T03:59:33.010Z,96797.97
2022-11-17T04:01:36.753Z,96789.47
2022-11-17T04:03:39.732Z,96788.38
2022-11-17T04:05:41.276Z,96783.72
2022-11-17T04:07:45.570Z,96783.41
2022-11-17T04:09:47.143Z,96777.97
2022-11-17T04:12:07.376Z,96784.22
2022-11-17T04:14:29.203Z,96775.72
2022-11-17T04:16:31.150Z,96770.28
2022-11-17T04:18:37.678Z,96771.91
2022-11-17T04:20:39.190Z,96767.84
2022-11-17T04:22:40.971Z,96763.72
2022-11-17T04:24:42.602Z,96757.94
2022-11-17T04:27:03.146Z,96756.03
2022-11-17T04:29:05.972Z,96752.97
2022-11-17T04:31:10.320Z,96754.91
2022-11-17T04:33:11.923Z,96739.34
2022-11-17T04:35:13.571Z,96742.59
2022-11-17T04:37:17.908Z,96736.31
2022-11-17T04:39:19.516Z,96736.31
2022-11-17T04:41:42.754Z,96735.50
2022-11-17T04:43:54.697Z,96739.34
2022-11-17T04:46:02.176Z,96734.69
2022-11-17T04:48:04.009Z,96736.00
2022-11-17T04:50:06.328Z,96725.91
2022-11-17T04:52:15.546Z,96723.16
2022-11-17T04:54:25.736Z,96716.28
2022-11-17T04:56:32.355Z,96714.66
2022-11-17T04:58:37.439Z,96716.28
2022-11-17T05:00:38.959Z,96719.34
2022-11-17T05:02:40.677Z,96723.97
2022-11-17T05:04:59.235Z,96732.97
2022-11-17T05:07:00.899Z,96738.44
2022-11-17T05:09:08.101Z,96739.53
2022-11-17T05:11:49.406Z,96737.31
2022-11-17T05:13:54.115Z,96726.72
2022-11-17T05:16:18.687Z,96726.41
2022-11-17T05:18:20.376Z,96721.25
2022-11-17T05:20:22.160Z,96725.56
2022-11-17T05:22:42.707Z,96725.28
2022-11-17T05:24:44.276Z,96717.91
2022-11-17T05:26:51.118Z,96712.47
2022-11-17T05:28:57.085Z,96710.81
2022-11-17T05:30:58.650Z,96711.66
2022-11-17T05:33:03.033Z,96715.47
2022-11-17T05:35:05.107Z,96724.16
2022-11-17T05:37:07.744Z,96713.78
2022-11-17T05:39:14.334Z,96712.97
2022-11-17T05:41:21.149Z,96717.91
2022-11-17T05:43:23.385Z,96712.13
2022-11-17T05:45:24.951Z,96719.50
2022-11-17T05:47:26.631Z,96724.97
2022-11-17T05:49:28.377Z,96715.69
2022-11-17T05:51:32.165Z,96715.69
2022-11-17T05:53:36.416Z,96712.63
2022-11-17T05:55:38.428Z,96707.78
2022-11-17T05:57:40.649Z,96715.69
2022-11-17T06:00:04.389Z,96722.56
2022-11-17T06:02:26.836Z,96721.16
2022-11-17T06:04:32.626Z,96715.69
2022-11-17T06:06:39.861Z,96714.06
2022-11-17T06:08:43.904Z,96717.59
2022-11-17T06:10:46.011Z,96718.69
2022-11-17T06:12:47.901Z,96721.44
2022-11-17T06:14:52.645Z,96733.97
2022-11-17T06:17:00.724Z,96738.94
2022-11-17T06:19:16.349Z,96749.03
2022-11-17T06:21:18.254Z,96749.84
2022-11-17T06:23:30.357Z,96743.59
2022-11-17T06:25:34.435Z,96759.66
2022-11-17T06:27:37.761Z,96755.00
2022-11-17T06:29:44.036Z,96755.31
2022-11-17T06:31:49.193Z,96731.56
2022-11-17T06:33:53.388Z,96727.72
2022-11-17T06:36:09.497Z,96727.22
2022-11-17T06:38:11.566Z,96726.41
2022-11-17T06:40:13.510Z,96730.75
2022-11-17T06:42:15.422Z,96736.22
2022-11-17T06:44:19.619Z,96743.28
2022-11-17T06:46:21.545Z,96739.75
2022-11-17T06:48:26.989Z,96741.66
2022-11-17T06:50:31.149Z,96740.03
2022-11-17T06:52:33.042Z,96729.13
2022-11-17T06:54:34.979Z,96712.75
2022-11-17T06:56:37.444Z,96715.47
2022-11-17T06:58:41.572Z,96722.56
2022-11-17T07:00:44.405Z,96725.28
2022-11-17T07:02:48.218Z,96727.53
2022-11-17T07:04:50.002Z,96713.88
2022-11-17T07:06:51.932Z,96720.94
2022-11-17T07:08:54.061Z,96708.41
2022-11-17T07:11:00.985Z,96701.00
2022-11-17T07:13:03.340Z,96705.69
2022-11-17T07:15:05.404Z,96683.84
2022-11-17T07:17:07.212Z,96695.06
2022-11-17T07:19:09.869Z,96686.06
2022-11-17T07:21:13.944Z,96687.47
2022-11-17T07:23:15.700Z,96693.25
2022-11-17T07:25:25.228Z,96687.78
2022-11-17T07:27:26.944Z,96700.94
2022-11-17T07:29:30.605Z,96702.25
2022-11-17T07:31:36.747Z,96708.81
2022-11-17T07:33:38.496Z,96711.25
2022-11-17T07:35:40.184Z,96707.72
2022-11-17T07:37:41.691Z,96716.72
2022-11-17T07:39:43.358Z,96705.78
2022-11-17T07:41:45.095Z,96712.56
2022-11-17T07:43:46.961Z,96709.00
2022-11-17T07:45:48.790Z,96721.25
2022-11-17T07:47:58.656Z,96699.69
2022-11-17T07:50:04.431Z,96704.56
2022-11-17T07:52:41.475Z,96702.63
2022-11-17T07:54:54.840Z,96714.97
2022-11-17T07:57:34.478Z,96699.91
2022-11-17T07:59:36.335Z,96696.56
2022-11-17T08:01:38.170Z,96701.94
2022-11-17T08:03:40.121Z,96719.63
2022-11-17T08:05:51.427Z,96711.44
2022-11-17T08:08:21.133Z,96706.78
2022-11-17T08:10:36.688Z,96719.03
2022-11-17T08:13:05.793Z,96719.81
2022-11-17T08:15:23.959Z,96712.31
2022-11-17T08:17:26.022Z,96725.38
2022-11-17T08:19:27.802Z,96723.94
2022-11-17T08:21:29.551Z,96718.69
2022-11-17T08:23:32.117Z,96731.44
2022-11-17T08:25:33.833Z,96722.09
2022-11-17T08:27:35.664Z,96726.16
2022-11-17T08:29:37.143Z,96730.50
2022-11-17T08:31:38.846Z,96727.16
2022-11-17T08:33:40.448Z,96723.81
2022-11-17T08:35:43.988Z,96719.66
2022-11-17T08:37:45.744Z,96709.53
2022-11-17T08:39:48.658Z,96715.50
2022-11-17T08:41:51.894Z,96742.84
2022-11-17T08:43:53.807Z,96744.94
2022-11-17T08:45:58.426Z,96746.56
2022-11-17T08:48:00.222Z,96745.13
2022-11-17T08:50:04.292Z,96739.66
2022-11-17T08:52:08.364Z,96741.31
2022-11-17T08:54:12.443Z,96739.34
2022-11-17T08:56:14.272Z,96748.38
2022-11-17T08:58:19.141Z,96751.59
2022-11-17T09:00:29.153Z,96745.22
2022-11-17T09:02:33.348Z,96741.06
2022-11-17T09:04:35.154Z,96717.25
2022-11-17T09:06:40.791Z,96720.53
2022-11-17T09:08:46.071Z,96730.81
2022-11-17T09:11:01.327Z,96731.81
2022-11-17T09:13:03.300Z,96729.91
2022-11-17T09:15:05.915Z,96735.53
2022-11-17T09:17:08.317Z,96730.56
2022-11-17T09:19:09.911Z,96738.97
2022-11-17T09:21:15.674Z,96733.19
2022-11-17T09:23:17.274Z,96728.25
2022-11-17T09:25:19.090Z,96734.19
2022-11-17T09:27:25.562Z,96737.44
2022-11-17T09:29:27.364Z,96735.19
2022-11-17T09:31:29.263Z,96726.69
2022-11-17T09:33:30.906Z,96711.88
2022-11-17T09:35:33.342Z,96716.53
2022-11-17T09:37:35.046Z,96701.28
2022-11-17T09:39:38.911Z,96708.34
2022-11-17T09:41:48.994Z,96701.75
2022-11-17T09:44:06.970Z,96697.09
2022-11-17T09:46:19.330Z,96689.72
2022-11-17T09:48:51.981Z,96682.00
2022-11-17T09:50:58.127Z,96680.91
2022-11-17T09:53:28.480Z,96692.31
2022-11-17T09:55:39.759Z,96691.72
2022-11-17T09:57:45.796Z,96694.94
2022-11-17T10:00:03.191Z,96685.59
2022-11-17T10:02:10.291Z,96684.97
2022-11-17T10:04:14.671Z,96685.97
2022-11-17T10:06:34.749Z,96690.84
2022-11-17T10:09:02.868Z,96698.75
2022-11-17T10:11:28.847Z,96686.38
2022-11-17T10:13:33.808Z,96672.84
2022-11-17T10:15:50.923Z,96681.25
2022-11-17T10:17:57.024Z,96681.44
2022-11-17T10:19:58.529Z,96678.06
2022-11-17T10:22:12.069Z,96681.00
2022-11-17T10:24:38.449Z,96657.66
2022-11-17T10:26:48.149Z,96683.91
2022-11-17T10:29:08.795Z,96687.94
2022-11-17T10:31:10.807Z,96689.53
2022-11-17T10:33:13.450Z,96698.75
2022-11-17T10:35:26.424Z,96702.59
2022-11-17T10:37:30.803Z,96696.50
2022-11-17T10:39:35.852Z,96688.16
2022-11-17T10:41:42.894Z,96676.06
2022-11-17T10:44:05.612Z,96677.06
2022-11-17T10:46:16.730Z,96683.03
2022-11-17T10:48:27.472Z,96683.03
2022-11-17T10:50:29.194Z,96683.22
2022-11-17T10:52:30.926Z,96681.47
2022-11-17T10:54:32.884Z,96686.59
2022-11-17T10:56:41.631Z,96690.97
2022-11-17T10:58:58.286Z,96682.44
2022-11-17T11:01:03.449Z,96694.69
2022-11-17T11:03:05.293Z,96681.50
2022-11-17T11:05:14.693Z,96684.72
2022-11-17T11:07:22.155Z,96676.38
2022-11-17T11:09:23.847Z,96683.00
2022-11-17T11:11:36.522Z,96680.25
2022-11-17T11:13:51.920Z,96681.25
2022-11-17T11:15:53.905Z,96677.41
2022-11-17T11:17:58.274Z,96676.44
2022-11-17T11:20:00.415Z,96672.72
2022-11-17T11:22:21.517Z,96674.53
2022-11-17T11:24:45.116Z,96678.25
2022-11-17T11:26:58.039Z,96665.00
2022-11-17T11:29:09.625Z,96663.28
2022-11-17T11:31:49.160Z,96656.16
2022-11-17T11:34:08.563Z,96663.78
2022-11-17T11:36:44.148Z,96653.78
2022-11-17T11:38:55.966Z,96654.28
2022-11-17T11:41:16.392Z,96653.59
2022-11-17T11:43:32.082Z,96640.88
2022-11-17T11:45:59.281Z,96638.28
2022-11-17T11:48:15.778Z,96635.56
2022-11-17T11:50:30.596Z,96624.91
2022-11-17T11:52:36.899Z,96629.09
2022-11-17T11:54:50.604Z,96633.78
2022-11-17T11:56:56.382Z,96639.09
2022-11-17T11:59:09.149Z,96631.00
2022-11-17T12:01:12.089Z,96635.38
2022-11-17T12:03:42.898Z,96621.31
2022-11-17T12:06:41.942Z,96637.28
2022-11-17T12:08:56.050Z,96657.31
2022-11-17T12:11:23.033Z,96658.59
2022-11-17T12:13:28.215Z,96655.03
2022-11-17T12:15:32.308Z,96645.69
2022-11-17T12:17:34.224Z,96653.59
2022-11-17T12:19:54.429Z,96659.72
2022-11-17T12:21:56.248Z,96664.09
2022-11-17T12:24:10.705Z,96671.16
2022-11-17T12:26:30.346Z,96661.97
2022-11-17T12:30:56.064Z,96667.00
2022-11-17T12:32:59.384Z,96679.91
2022-11-17T12:35:24.383Z,96686.84
2022-11-17T12:37:29.834Z,96696.69
2022-11-17T12:39:54.625Z,96698.44
2022-11-17T12:42:09.118Z,96705.09
2022-11-17T12:44:36.873Z,96706.19
2022-11-17T12:46:39.636Z,96709.44
2022-11-17T12:48:55.820Z,96714.44
2022-11-17T12:51:10.979Z,96714.44
2022-11-17T12:53:18.482Z,96715.53
2022-11-17T12:55:40.151Z,96719.75
2022-11-17T12:57:44.090Z,96718.97
2022-11-17T12:59:54.494Z,96716.53
2022-11-17T13:02:17.898Z,96726.19
2022-11-17T13:04:35.567Z,96718.78
2022-11-17T13:06:37.412Z,96732.50
2022-11-17T13:08:38.943Z,96723.47
2022-11-17T13:10:41.713Z,96724.59
2022-11-17T13:12:48.894Z,96723.31
2022-11-17T13:15:02.092Z,96742.34
2022-11-17T13:17:04.143Z,96740.72
2022-11-17T13:19:39.071Z,96739.13
2022-11-17T13:21:46.088Z,96732.00
2022-11-17T13:23:51.300Z,96721.66
2022-11-17T13:26:27.893Z,96731.03
2022-11-17T13:28:32.813Z,96725.84
2022-11-17T13:30:34.636Z,96721.66
2022-11-17T13:32:39.023Z,96720.38
2022-11-17T13:34:47.620Z,96731.69
2022-11-17T13:36:57.709Z,96730.72
2022-11-17T13:39:03.177Z,96727.16
2022-11-17T13:41:05.894Z,96720.53
2022-11-17T13:43:12.987Z,96729.28
2022-11-17T13:45:15.991Z,96727.31
2022-11-17T13:47:32.609Z,96720.72
2022-11-17T13:49:35.122Z,96732.34
2022-11-17T13:51:39.983Z,96724.25
2022-11-17T13:53:44.992Z,96724.25
2022-11-17T13:55:47.468Z,96719.28
2022-11-17T13:58:04.996Z,96718.78
2022-11-17T14:00:16.756Z,96708.63
2022-11-17T14:02:26.802Z,96710.25
2022-11-17T14:04:28.563Z,96705.41
2022-11-17T14:07:00.906Z,96709.25
2022-11-17T14:09:08.220Z,96718.78
2022-11-17T14:11:09.992Z,96713.78
2022-11-17T14:13:22.938Z,96719.28
2022-11-17T14:15:30.229Z,96723.78
2022-11-17T14:17:34.360Z,96737.34
2022-11-17T14:19:36.025Z,96737.81
2022-11-17T14:22:23.564Z,96734.44
2022-11-17T14:24:32.987Z,96733.31
2022-11-17T14:26:35.198Z,96734.59
2022-11-17T14:28:36.697Z,96738.94
2022-11-17T14:30:38.411Z,96755.09
2022-11-17T14:32:40.223Z,96744.44
2022-11-17T14:34:44.074Z,96748.94
2022-11-17T14:36:47.698Z,96749.75
2022-11-17T14:38:50.988Z,96749.75
2022-11-17T14:40:56.397Z,96753.31
2022-11-17T14:42:57.998Z,96752.19
2022-11-17T14:45:00.044Z,96748.63
2022-11-17T14:47:02.826Z,96766.22
2022-11-17T14:49:05.122Z,96759.59
2022-11-17T14:51:06.764Z,96758.00
2022-11-17T14:53:13.955Z,96756.06
2022-11-17T14:55:17.962Z,96745.09
2022-11-17T14:57:19.990Z,96744.91
2022-11-17T14:59:22.771Z,96749.28
2022-11-17T15:01:31.131Z,96746.53
2022-11-17T15:03:36.216Z,96749.28
2022-11-17T15:05:45.468Z,96755.56
2022-11-17T15:07:49.582Z,96748.78
2022-11-17T15:09:54.817Z,96750.22
2022-11-17T15:11:56.568Z,96754.13
2022-11-17T15:14:13.205Z,96752.81
2022-11-17T15:16:24.326Z,96754.75
2022-11-17T15:18:25.956Z,96761.69
2022-11-17T15:20:29.166Z,96746.84
2022-11-17T15:22:31.145Z,96751.19
2022-11-17T15:24:32.783Z,96761.69
2022-11-17T15:26:35.843Z,96758.47
2022-11-17T15:28:37.448Z,96760.72
2022-11-17T15:30:39.423Z,96768.94
2022-11-17T15:32:41.256Z,96773.13
2022-11-17T15:34:43.681Z,96778.63
2022-11-17T15:36:51.598Z,96770.22
2022-11-17T15:38:54.121Z,96776.81
2022-11-17T15:40:59.189Z,96775.22
2022-11-17T15:43:05.587Z,96795.53
2022-11-17T15:45:07.703Z,96801.00
2022-11-17T15:47:09.317Z,96807.13
2022-11-17T15:49:11.147Z,96812.59
2022-11-17T15:51:18.017Z,96806.63
2022-11-17T15:53:22.447Z,96805.03
2022-11-17T15:55:25.489Z,96799.84
2022-11-17T15:57:27.446Z,96799.38
2022-11-17T15:59:29.024Z,96795.00
2022-11-17T16:01:39.018Z,96786.28
2022-11-17T16:03:43.027Z,96786.91
2022-11-17T16:05:45.077Z,96775.16
2022-11-17T16:07:50.072Z,96775.94
2022-11-17T16:09:54.870Z,96782.84
2022-11-17T16:11:59.083Z,96775.78
2022-11-17T16:14:01.269Z,96776.06
2022-11-17T16:16:04.081Z,96782.69
2022-11-17T16:18:05.997Z,96780.25
2022-11-17T16:20:08.429Z,96778.34
2022-11-17T16:22:11.191Z,96788.47
2022-11-17T16:24:13.566Z,96785.59
2022-11-17T16:26:17.255Z,96805.06
2022-11-17T16:28:18.937Z,96796.84
2022-11-17T16:30:20.843Z,96798.47
2022-11-17T16:32:22.503Z,96802.66
2022-11-17T16:34:26.180Z,96801.84
2022-11-17T16:36:36.513Z,96807.31
2022-11-17T16:38:45.742Z,96811.50
2022-11-17T16:41:01.640Z,96800.06
2022-11-17T16:43:03.370Z,96794.88
2022-11-17T16:45:05.657Z,96808.56
2022-11-17T16:47:07.404Z,96798.28
2022-11-17T16:49:12.268Z,96803.75
2022-11-17T16:51:15.115Z,96801.31
2022-11-17T16:53:16.833Z,96804.69
2022-11-17T16:55:21.843Z,96806.63
2022-11-17T16:57:23.493Z,96816.78
2022-11-17T16:59:25.215Z,96808.56
2022-11-17T17:01:30.449Z,96807.25
2022-11-17T17:03:33.535Z,96809.66
2022-11-17T17:05:40.565Z,96817.06
2022-11-17T17:07:42.119Z,96815.16
2022-11-17T17:09:47.028Z,96808.06
2022-11-17T17:11:58.593Z,96817.88
2022-11-17T17:14:05.402Z,96825.94
2022-11-17T17:16:13.804Z,96828.69
2022-11-17T17:18:19.198Z,96831.41
2022-11-17T17:20:31.028Z,96824.81
2022-11-17T17:22:32.760Z,96817.22
2022-11-17T17:24:34.803Z,96802.06
2022-11-17T17:26:37.370Z,96795.63
2022-11-17T17:28:41.076Z,96799.47
2022-11-17T17:30:42.604Z,96799.47
2022-11-17T17:32:46.919Z,96792.41
2022-11-17T17:34:51.797Z,96788.53
2022-11-17T17:36:53.380Z,96789.97
2022-11-17T17:38:57.182Z,96781.75
2022-11-17T17:41:08.254Z,96780.78
2022-11-17T17:43:12.611Z,96786.25
2022-11-17T17:45:17.514Z,96774.19
2022-11-17T17:47:20.587Z,96773.38
2022-11-17T17:49:22.246Z,96782.69
2022-11-17T17:51:26.242Z,96784.63
2022-11-17T17:53:28.009Z,96785.28
2022-11-17T17:55:31.065Z,96760.91
2022-11-17T17:57:34.151Z,96769.94
2022-11-17T17:59:35.984Z,96773.19
2022-11-17T18:01:40.419Z,96773.66
2022-11-17T18:03:44.703Z,96773.19
2022-11-17T18:05:49.454Z,96768.03
2022-11-17T18:07:51.251Z,96775.44
2022-11-17T18:09:52.889Z,96765.59
2022-11-17T18:11:54.615Z,96769.47
2022-11-17T18:13:58.805Z,96779.59
2022-11-17T18:16:06.380Z,96773.31
2022-11-17T18:18:08.322Z,96770.91
2022-11-17T18:20:10.463Z,96777.19
2022-11-17T18:22:12.312Z,96775.88
2022-11-17T18:24:14.506Z,96764.13
2022-11-17T18:26:19.905Z,96762.00
2022-11-17T18:28:25.358Z,96763.94
2022-11-17T18:30:27.294Z,96771.03
2022-11-17T18:32:30.348Z,96782.00
2022-11-17T18:34:32.631Z,96783.91
2022-11-17T18:36:35.455Z,96792.47
2022-11-17T18:38:38.454Z,96797.13
2022-11-17T18:40:40.138Z,96803.69
2022-11-17T18:42:41.873Z,96803.22
2022-11-17T18:44:44.030Z,96807.06
2022-11-17T18:46:46.272Z,96798.84
2022-11-17T18:48:51.238Z,96799.19
2022-11-17T18:51:18.246Z,96794.50
2022-11-17T18:53:14.833Z,96787.41
2022-11-17T18:55:18.895Z,96803.03
2022-11-17T18:57:21.676Z,96790.16
2022-11-17T18:59:26.603Z,96779.81
2022-11-17T19:01:30.058Z,96791.91
2022-11-17T19:03:31.764Z,96806.41
2022-11-17T19:05:36.261Z,96801.22
2022-11-17T19:07:38.051Z,96797.19
2022-11-17T19:09:41.784Z,96798.00
2022-11-17T19:11:43.583Z,96783.50
2022-11-17T19:13:49.199Z,96770.94
2022-11-17T19:15:52.282Z,96774.47
2022-11-17T19:17:56.959Z,96765.97
2022-11-17T19:19:58.736Z,96756.47
2022-11-17T19:22:00.758Z,96759.19
2022-11-17T19:24:18.670Z,96764.66
2022-11-17T19:26:29.263Z,96757.88
2022-11-17T19:28:31.363Z,96765.63
2022-11-17T19:30:33.551Z,96768.03
2022-11-17T19:32:35.227Z,96778.47
2022-11-17T19:34:37.498Z,96777.34
2022-11-17T19:36:39.199Z,96781.72
2022-11-17T19:38:42.937Z,96783.63
2022-11-17T19:40:47.387Z,96795.41
2022-11-17T19:42:51.531Z,96793.78
2022-11-17T19:44:53.227Z,96796.00
2022-11-17T19:46:57.588Z,96792.16
2022-11-17T19:48:59.569Z,96803.13
2022-11-17T19:51:10.659Z,96798.94
2022-11-17T19:53:12.260Z,96802.31
2022-11-17T19:55:16.602Z,96809.22
2022-11-17T19:57:18.360Z,96818.53
2022-11-17T19:59:22.912Z,96814.50
2022-11-17T20:01:27.686Z,96814.50
2022-11-17T20:03:34.401Z,96815.63
2022-11-17T20:05:36.293Z,96811.59
2022-11-17T20:07:42.234Z,96814.31
2022-11-17T20:09:44.027Z,96817.88
2022-11-17T20:11:45.813Z,96823.63
2022-11-17T20:14:11.989Z,96813.00
2022-11-17T20:16:54.382Z,96821.50
2022-11-17T20:18:57.948Z,96825.38
2022-11-17T20:21:07.389Z,96815.25
2022-11-17T20:23:09.320Z,96812.53
2022-11-17T20:25:12.120Z,96810.91
2022-11-17T20:27:17.302Z,96802.19
2022-11-17T20:29:19.119Z,96794.28
2022-11-17T20:31:22.070Z,96787.69
2022-11-17T20:33:25.773Z,96791.53
2022-11-17T20:35:32.980Z,96793.50
2022-11-17T20:37:37.777Z,96801.38
2022-11-17T20:39:39.421Z,96803.31
2022-11-17T20:41:41.003Z,96809.09
2022-11-17T20:43:42.877Z,96809.09
2022-11-17T20:45:50.192Z,96817.31
2022-11-17T20:47:58.560Z,96821.16
2022-11-17T20:50:00.190Z,96819.56
2022-11-17T20:52:01.879Z,96820.34
2022-11-17T20:54:04.121Z,96815.69
2022-11-17T20:56:08.240Z,96811.34
2022-11-17T20:58:09.938Z,96804.25
2022-11-17T21:00:12.176Z,96808.59
2022-11-17T21:02:20.754Z,96809.72
2022-11-17T21:04:35.698Z,96809.22
2022-11-17T21:06:40.015Z,96808.41
2022-11-17T21:08:53.519Z,96800.19
2022-11-17T21:11:00.370Z,96799.22
2022-11-17T21:13:02.083Z,96805.47
2022-11-17T21:15:04.211Z,96816.94
2022-11-17T21:17:28.729Z,96810.66
2022-11-17T21:19:31.690Z,96819.16
2022-11-17T21:21:39.292Z,96817.56
2022-11-17T21:23:41.973Z,96815.31
2022-11-17T21:25:43.656Z,96808.22
2022-11-17T21:27:48.489Z,96801.63
2022-11-17T21:29:50.113Z,96802.72
2022-11-17T21:31:51.750Z,96807.41
2022-11-17T21:33:55.664Z,96809.03
2022-11-17T21:36:05.467Z,96805.47
2022-11-17T21:38:07.828Z,96812.06
2022-11-17T21:40:09.836Z,96810.94
2022-11-17T21:42:11.388Z,96815.63
2022-11-17T21:44:15.236Z,96827.34
2022-11-17T21:46:19.521Z,96832.81
2022-11-17T21:48:21.458Z,96829.59
2022-11-17T21:50:23.018Z,96833.97
2022-11-17T21:52:27.341Z,96833.63
2022-11-17T21:54:31.102Z,96825.75
2022-11-17T21:56:33.023Z,96839.44
2022-11-17T21:58:34.878Z,96826.56
2022-11-17T22:00:38.791Z,96836.69
2022-11-17T22:02:40.868Z,96834.47
2022-11-17T22:04:42.570Z,96833.97
2022-11-17T22:06:46.566Z,96827.69
2022-11-17T22:08:49.181Z,96825.75
2022-11-17T22:10:50.881Z,96832.03
2022-11-17T22:12:52.565Z,96818.66
2022-11-17T22:14:54.034Z,96824.63
2022-11-17T22:16:56.402Z,96833.34
2022-11-17T22:18:58.131Z,96825.13
2022-11-17T22:20:59.880Z,96832.53
2022-11-17T22:23:01.639Z,96845.06
2022-11-17T22:25:22.825Z,96843.16
2022-11-17T22:27:28.254Z,96844.78
2022-11-17T22:29:30.191Z,96848.63
2022-11-17T22:31:32.587Z,96857.34
2022-11-17T22:33:34.416Z,96857.34
2022-11-17T22:35:37.516Z,96866.06
2022-11-17T22:37:39.031Z,96864.44
2022-11-17T22:39:40.868Z,96861.69
2022-11-17T22:41:45.445Z,96872.63
2022-11-17T22:43:51.066Z,96871.00
2022-11-17T22:45:52.636Z,96877.00
2022-11-17T22:47:54.595Z,96877.00
2022-11-17T22:49:56.152Z,96884.06
2022-11-17T22:52:08.766Z,96885.72
2022-11-17T22:54:10.633Z,96872.84
2022-11-17T22:56:12.211Z,96869.28
2022-11-17T22:58:15.845Z,96880.22
2022-11-17T23:00:17.658Z,96881.06
2022-11-17T23:02:21.967Z,96882.97
2022-11-17T23:04:23.557Z,96880.41
2022-11-17T23:06:27.195Z,96876.38
2022-11-17T23:08:28.933Z,96870.09
2022-11-17T23:10:33.681Z,96868.16
2022-11-17T23:12:35.235Z,96869.78
2022-11-17T23:14:37.308Z,96868.16
2022-11-17T23:16:39.406Z,96865.41
2022-11-17T23:18:41.117Z,96862.38
2022-11-17T23:20:42.743Z,96861.56
2022-11-17T23:22:47.090Z,96860.47
2022-11-17T23:24:51.109Z,96859.34
2022-11-17T23:26:52.826Z,96861.56
2022-11-17T23:28:54.410Z,96855.00
2022-11-17T23:31:00.560Z,96853.03
2022-11-17T23:33:04.749Z,96850.31
2022-11-17T23:35:06.930Z,96853.56
2022-11-17T23:37:08.669Z,96849.53
2022-11-17T23:39:10.577Z,96838.88
2022-11-17T23:41:14.526Z,96851.13
2022-11-17T23:43:16.159Z,96849.19
2022-11-17T23:45:17.814Z,96849.19
2022-11-17T23:47:19.559Z,96842.91
2022-11-17T23:49:21.244Z,96839.69
2022-11-17T23:51:27.705Z,96840.19
2022-11-17T23:53:29.233Z,96842.09
2022-11-17T23:55:30.770Z,96833.41
2022-11-17T23:57:32.378Z,96827.09
2022-11-17T23:59:34.012Z,96827.94
